Time;durP1;ratioP1;P1;durP2;ratioP2;P2;SDS_P1;SDS_P2;PMS_P1;PMS_P2;Temp;Humidity;BMP_temperature;BMP_pressure;BME280_temperature;BME280_humidity;BME280_pressure;Samples;Min_cycle;Max_cycle;Signal;HPM_P1;HPM_P2
2024/01/22 00:02:11;;;;;;;3.40;2.80;;;;;;;1.83;42.89;97472.27;108255;1278;137047;-85
2024/01/22 00:04:50;;;;;;;4.30;2.60;;;;;;;1.89;43.05;97475.28;108359;1281;22534;-86
2024/01/22 00:07:22;;;;;;;3.60;3.30;;;;;;;1.94;43.22;97483.70;108262;1282;137260;-85
2024/01/22 00:09:51;;;;;;;3.20;2.40;;;;;;;1.92;43.43;97473.90;108251;1283;23280;-86
2024/01/22 00:12:18;;;;;;;3.00;2.40;;;;;;;1.89;43.67;97460.48;108339;1282;22636;-86
2024/01/22 00:14:47;;;;;;;3.40;2.10;;;;;;;1.93;42.32;97462.73;108172;1277;137612;-86
2024/01/22 00:17:14;;;;;;;1.80;1.70;;;;;;;1.99;42.82;97459.96;108344;1276;22585;-86
2024/01/22 00:19:41;;;;;;;3.20;2.10;;;;;;;2.00;42.71;97471.48;108275;1282;137629;-86
2024/01/22 00:22:07;;;;;;;3.40;2.60;;;;;;;1.98;43.79;97474.20;108331;1276;22537;-84
2024/01/22 00:24:34;;;;;;;3.00;2.20;;;;;;;1.95;42.64;97478.82;108411;1283;24023;-85
2024/01/22 00:27:04;;;;;;;3.50;2.50;;;;;;;2.01;41.90;97481.70;108229;1284;137776;-85
2024/01/22 00:29:31;;;;;;;3.10;2.10;;;;;;;2.09;42.16;97498.04;108322;1282;25494;-86
2024/01/22 00:32:04;;;;;;;3.60;2.70;;;;;;;2.12;42.48;97504.86;108310;1283;137095;-86
2024/01/22 00:34:30;;;;;;;3.20;2.40;;;;;;;2.10;43.23;97511.81;108331;1282;26602;-85
2024/01/22 00:36:57;;;;;;;2.80;2.40;;;;;;;2.08;42.50;97512.47;108267;1282;137739;-86
2024/01/22 00:39:24;;;;;;;2.90;2.20;;;;;;;2.07;42.13;97512.89;108585;1282;22730;-85
2024/01/22 00:41:56;;;;;;;3.00;2.20;;;;;;;2.05;42.34;97515.38;108363;1282;24373;-84
2024/01/22 00:44:23;;;;;;;4.10;3.10;;;;;;;2.05;42.76;97521.58;108401;1282;137121;-85
2024/01/22 00:46:53;;;;;;;2.30;1.80;;;;;;;2.01;42.97;97521.00;108392;1282;22567;-84
2024/01/22 00:49:24;;;;;;;3.20;2.80;;;;;;;1.99;41.82;97522.99;108286;1275;137231;-84
2024/01/22 00:51:51;;;;;;;4.20;2.60;;;;;;;1.99;42.65;97518.56;108366;1277;22533;-84
2024/01/22 00:54:23;;;;;;;2.80;2.00;;;;;;;1.99;41.29;97506.45;108417;1282;22537;-85
2024/01/22 00:56:55;;;;;;;3.70;2.20;;;;;;;2.02;42.06;97495.98;108255;1281;137201;-84
2024/01/22 00:59:24;;;;;;;;;;;;;;;2.03;41.20;97500.68;108428;1283;22626;-84
2024/01/22 01:01:51;;;;;;;2.90;2.10;;;;;;;2.07;41.17;97501.23;108251;1283;123632;-84
2024/01/22 01:04:18;;;;;;;2.80;1.90;;;;;;;2.08;40.34;97497.76;108366;1281;22582;-84
2024/01/22 01:06:50;;;;;;;2.70;2.10;;;;;;;2.09;41.46;97492.27;108383;1283;22529;-84
2024/01/22 01:09:38;;;;;;;;;;;;;;;;;;;;;
2024/01/22 01:12:13;;;;;;;3.70;2.20;;;;;;;2.07;40.81;97487.73;108567;1282;24540;-85
2024/01/22 01:14:39;;;;;;;2.70;1.80;;;;;;;2.08;40.65;97483.73;108215;1283;137359;-85
2024/01/22 01:17:12;;;;;;;2.50;2.10;;;;;;;2.15;39.71;97487.58;108331;1282;22567;-85
2024/01/22 01:19:47;;;;;;;4.30;3.10;;;;;;;2.26;39.86;97489.39;108211;1274;137251;-84
2024/01/22 01:22:17;;;;;;;3.40;2.30;;;;;;;2.30;40.58;97489.80;108400;1283;22523;-83
2024/01/22 01:24:51;;;;;;;7.60;4.00;;;;;;;2.32;40.11;97498.70;108435;1279;22565;-83
2024/01/22 01:27:21;;;;;;;4.40;2.60;;;;;;;2.34;40.53;97501.37;108427;1283;22558;-83
2024/01/22 01:29:53;;;;;;;3.40;2.20;;;;;;;2.26;40.40;97498.14;108279;1284;22589;-84
2024/01/22 01:32:23;;;;;;;2.90;2.20;;;;;;;2.23;40.23;97487.36;108298;1283;137128;-83
2024/01/22 01:34:55;;;;;;;5.40;3.30;;;;;;;2.23;40.35;97487.41;108345;1282;22606;-83
2024/01/22 01:37:22;;;;;;;;;;;;;;;2.20;40.05;97481.77;108356;1282;137932;-83
2024/01/22 01:39:53;;;;;;;4.70;2.50;;;;;;;2.18;38.73;97466.88;108155;1275;340918;-83
2024/01/22 01:42:23;;;;;;;3.60;2.30;;;;;;;2.27;38.23;97464.20;108367;1282;22581;-82
2024/01/22 01:44:55;;;;;;;2.50;1.70;;;;;;;2.30;38.27;97465.39;108384;1282;137625;-83
2024/01/22 01:47:22;;;;;;;3.00;1.90;;;;;;;2.30;39.96;97465.86;108292;1283;22641;-83
2024/01/22 01:49:51;;;;;;;2.10;1.70;;;;;;;2.29;38.48;97455.04;108345;1282;137415;-83
2024/01/22 01:52:28;;;;;;;2.30;2.00;;;;;;;2.30;39.32;97461.10;108426;1282;22551;-83
2024/01/22 01:55:00;;;;;;;1.80;1.60;;;;;;;2.27;38.90;97454.30;108323;1282;137296;-83
2024/01/22 01:57:32;;;;;;;1.90;1.50;;;;;;;2.25;39.65;97435.98;108379;1283;24178;-84
2024/01/22 02:00:16;;;;;;;1.30;1.20;;;;;;;2.22;38.90;97424.18;108449;1282;22534;-83
2024/01/22 02:02:43;;;;;;;2.10;1.40;;;;;;;2.25;38.32;97414.02;108394;1282;137283;-83
2024/01/22 02:05:13;;;;;;;2.10;1.60;;;;;;;2.29;38.43;97407.31;108367;1282;22536;-83
2024/01/22 02:08:05;;;;;;;;;;;;;;;;;;;;;
2024/01/22 02:10:56;;;;;;;;;;;;;;;2.22;39.01;97395.48;108414;1283;22528;-83
2024/01/22 02:13:52;;;;;;;;;;;;;;;;;;;;;
2024/01/22 02:16:51;;;;;;;1.60;1.40;;;;;;;2.26;38.98;97383.72;108438;1280;22618;-83
2024/01/22 02:19:55;;;;;;;;;;;;;;;;;;;;;
2024/01/22 02:22:50;;;;;;;;;;;;;;;;;;;;;
2024/01/22 02:25:53;;;;;;;;;;;;;;;;;;;;;
2024/01/22 02:29:01;;;;;;;;;;;;;;;;;;;;;
2024/01/22 02:31:53;;;;;;;;;;;;;;;;;;;;;
2024/01/22 02:34:28;;;;;;;1.90;1.50;;;;;;;2.13;39.12;97320.06;108439;1283;22542;-82
2024/01/22 02:37:23;;;;;;;;;;;;;;;;;;;;;
2024/01/22 02:40:09;;;;;;;2.20;1.40;;;;;;;2.29;39.00;97313.59;108372;1283;22640;-83
2024/01/22 02:42:53;;;;;;;;;;;;;;;;;;;;;
2024/01/22 02:45:34;;;;;;;;;;;;;;;;;;;;;
2024/01/22 02:48:29;;;;;;;2.00;1.50;;;;;;;2.26;38.32;97305.75;108460;1282;22594;-82
2024/01/22 02:51:23;;;;;;;1.50;1.40;;;;;;;2.30;38.16;97301.60;108325;1282;137206;-83
2024/01/22 02:54:03;;;;;;;;;;;;;;;;;;;;;
2024/01/22 02:56:45;;;;;;;2.00;1.30;;;;;;;2.32;38.58;97295.42;108262;1279;137154;-83
2024/01/22 02:59:21;;;;;;;1.40;1.10;;;;;;;2.36;38.43;97299.60;108342;1279;22529;-84
2024/01/22 03:01:53;;;;;;;1.50;1.30;;;;;;;2.38;37.92;97305.45;108183;1282;137503;-84
2024/01/22 03:04:20;;;;;;;2.10;1.30;;;;;;;2.44;37.35;97311.16;108326;1282;22534;-84
2024/01/22 03:06:55;;;;;;;1.30;1.20;;;;;;;2.50;37.79;97317.27;108388;1276;22541;-84
2024/01/22 03:09:25;;;;;;;1.40;1.20;;;;;;;2.53;37.90;97321.19;108396;1276;23183;-84
2024/01/22 03:11:55;;;;;;;2.70;1.40;;;;;;;2.52;38.16;97328.73;108378;1282;22580;-84
2024/01/22 03:14:25;;;;;;;1.80;1.40;;;;;;;2.57;37.26;97332.30;108280;1283;137634;-84
2024/01/22 03:16:55;;;;;;;2.30;1.30;;;;;;;2.58;37.56;97328.48;108329;1283;22607;-84
2024/01/22 03:19:30;;;;;;;2.40;1.50;;;;;;;2.59;37.39;97321.89;108220;1280;137639;-84
2024/01/22 03:21:57;;;;;;;1.60;1.50;;;;;;;2.60;38.23;97321.47;108435;1282;22534;-84
2024/01/22 03:24:31;;;;;;;2.10;1.40;;;;;;;2.56;37.95;97322.83;108415;1283;22536;-84
2024/01/22 03:27:03;;;;;;;2.10;1.30;;;;;;;2.54;38.21;97316.23;108284;1283;137872;-83
2024/01/22 03:29:30;;;;;;;2.00;1.50;;;;;;;2.54;38.68;97315.63;108440;1282;22538;-84
2024/01/22 03:31:56;;;;;;;1.80;1.30;;;;;;;2.51;37.25;97319.41;108283;1281;137273;-84
2024/01/22 03:34:26;;;;;;;2.80;1.50;;;;;;;2.53;37.94;97311.40;108393;1283;22559;-84
2024/01/22 03:36:57;;;;;;;1.30;1.20;;;;;;;2.55;36.51;97308.20;108269;1283;22718;-84
2024/01/22 03:39:26;;;;;;;1.50;1.40;;;;;;;2.64;38.04;97304.11;108410;1282;22639;-84
2024/01/22 03:41:53;;;;;;;1.40;1.30;;;;;;;2.63;37.59;97299.42;108339;1282;23348;-83
2024/01/22 03:44:28;;;;;;;1.50;1.20;;;;;;;2.64;38.35;97303.95;108328;1282;137593;-84
2024/01/22 03:46:58;;;;;;;3.80;2.30;;;;;;;2.59;37.51;97306.31;108357;1282;22536;-84
2024/01/22 03:49:25;;;;;;;2.60;1.90;;;;;;;2.56;38.09;97302.77;108345;1282;137364;-83
2024/01/22 03:52:00;;;;;;;1.80;1.50;;;;;;;2.48;37.76;97300.34;108374;1279;22599;-84
2024/01/22 03:54:31;;;;;;;1.80;1.20;;;;;;;2.41;37.77;97292.04;108400;1270;22571;-84
2024/01/22 03:57:08;;;;;;;1.20;1.10;;;;;;;2.33;38.58;97284.11;108134;1284;137208;-83
2024/01/22 03:59:46;;;;;;;1.60;1.40;;;;;;;2.25;38.54;97274.05;108242;1283;22566;-84
2024/01/22 04:02:24;;;;;;;1.70;1.30;;;;;;;2.25;37.42;97266.70;108345;1284;138033;-83
2024/01/22 04:05:06;;;;;;;1.40;1.30;;;;;;;2.36;37.67;97263.88;108710;1284;22533;-83
2024/01/22 04:07:33;;;;;;;2.10;1.50;;;;;;;2.45;37.74;97255.71;108256;1284;137415;-84
2024/01/22 04:10:00;;;;;;;1.20;1.10;;;;;;;2.59;37.29;97242.00;108342;1283;23243;-84
2024/01/22 04:12:30;;;;;;;1.40;1.10;;;;;;;2.78;36.93;97239.27;108248;1280;22594;-84
2024/01/22 04:15:02;;;;;;;2.20;1.20;;;;;;;3.00;35.95;97238.52;108264;1284;137871;-84
2024/01/22 04:17:35;;;;;;;2.20;1.20;;;;;;;3.13;36.40;97242.16;108620;1284;22592;-84
2024/01/22 04:20:15;;;;;;;1.40;1.00;;;;;;;3.22;36.03;97237.86;108185;1278;137424;-84
2024/01/22 04:22:48;;;;;;;1.20;1.00;;;;;;;3.36;33.62;97209.63;108280;1284;22585;-84
2024/01/22 04:25:18;;;;;;;1.30;1.20;;;;;;;3.49;33.21;97198.48;108296;1277;137753;-84
2024/01/22 04:28:06;;;;;;;;;;;;;;;;;;;;;
2024/01/22 04:30:41;;;;;;;1.30;1.20;;;;;;;3.73;32.90;97196.46;108341;1280;24414;-84
2024/01/22 04:33:13;;;;;;;2.40;1.30;;;;;;;3.74;33.33;97196.69;108231;1284;137697;-84
2024/01/22 04:35:49;;;;;;;1.00;0.90;;;;;;;3.75;32.86;97190.10;108290;1280;22585;-84
2024/01/22 04:39:03;;;;;;;1.60;0.90;;;;;;;3.79;33.29;97189.61;108160;1284;137380;-84
2024/01/22 04:42:29;;;;;;;0.90;0.90;;;;;;;3.82;32.36;97200.38;108339;1276;22600;-84
2024/01/22 04:45:56;;;;;;;1.60;1.40;;;;;;;3.88;31.65;97198.16;108311;1282;137278;-84
2024/01/22 04:49:09;;;;;;;104.60;51.40;;;;;;;3.97;32.46;97202.45;108241;1284;23149;-84
2024/01/22 04:52:35;;;;;;;13.10;5.00;;;;;;;3.94;32.05;97201.84;108353;1284;23753;-84
2024/01/22 04:56:03;;;;;;;7.90;2.60;;;;;;;3.97;32.28;97196.85;108278;1284;22542;-84
2024/01/22 04:59:25;;;;;;;2.60;1.40;;;;;;;4.02;31.23;97193.98;108458;1283;22540;-84
2024/01/22 05:02:51;;;;;;;19.80;8.20;;;;;;;4.09;31.84;97208.51;108340;1284;137752;-85
2024/01/22 05:06:18;;;;;;;5.90;2.40;;;;;;;4.04;31.92;97205.13;108378;1284;22530;-85
2024/01/22 05:09:37;;;;;;;2.90;1.10;;;;;;;3.92;31.86;97204.54;108165;1284;136632;-86
2024/01/22 05:12:42;;;;;;;13.90;5.90;;;;;;;3.82;32.12;97201.38;108395;1277;22629;-86
2024/01/22 05:16:10;;;;;;;21.70;9.50;;;;;;;3.80;32.29;97197.61;108235;1284;137537;-86
2024/01/22 05:19:30;;;;;;;2.90;1.40;;;;;;;3.73;32.66;97203.29;108272;1284;22590;-85
2024/01/22 05:22:50;;;;;;;7.70;3.00;;;;;;;3.59;33.08;97219.45;108431;1284;22534;-86
2024/01/22 05:29:16;;;;;;;;;;;;;;;;;;;;;
2024/01/22 05:32:08;;;;;;;;;;;;;;;;;;;;;
2024/01/22 05:35:35;;;;;;;6.20;2.10;;;;;;;3.35;33.00;97213.23;108326;1284;22911;-85
2024/01/22 05:39:04;;;;;;;8.00;2.80;;;;;;;3.48;31.87;97201.48;108252;1276;137876;-86
2024/01/22 05:42:15;;;;;;;8.80;3.00;;;;;;;3.55;31.87;97194.55;108418;1276;22646;-86
2024/01/22 05:45:34;;;;;;;1.80;1.50;;;;;;;3.53;33.77;97181.86;108178;1276;137488;-86
2024/01/22 05:48:47;;;;;;;3.30;1.60;;;;;;;3.53;31.60;97163.03;108371;1277;22535;-85
2024/01/22 05:52:14;;;;;;;9.90;3.10;;;;;;;3.76;32.23;97156.30;108252;1276;137328;-86
2024/01/22 05:55:26;;;;;;;;;;;;;;;;;;;;;
2024/01/22 05:59:01;;;;;;;7.00;2.50;;;;;;;4.04;31.26;97150.30;108835;1277;22540;-86
2024/01/22 06:02:20;;;;;;;2.90;1.50;;;;;;;4.17;31.72;97139.65;108214;1284;137322;-85
2024/01/22 06:09:14;;;;;;;7.80;2.90;;;;;;;4.43;31.04;97156.55;108191;1284;137456;-85
2024/01/22 06:12:42;;;;;;;1.30;1.20;;;;;;;4.45;30.38;97140.63;108328;1283;22592;-86
2024/01/22 06:16:12;;;;;;;2.70;1.70;;;;;;;4.56;29.74;97135.91;108219;1283;137083;-85
2024/01/22 06:19:32;;;;;;;2.30;1.60;;;;;;;4.60;30.94;97136.64;108165;1284;22563;-86
2024/01/22 06:23:00;;;;;;;4.50;3.20;;;;;;;4.64;30.11;97117.64;108355;1276;23396;-87
2024/01/22 06:26:29;;;;;;;2.00;1.30;;;;;;;4.77;29.94;97124.73;108251;1284;22691;-86
2024/01/22 06:29:58;;;;;;;1.60;1.10;;;;;;;4.77;29.71;97115.98;108269;1284;22552;-86
2024/01/22 06:33:00;;;;;;;3.30;1.30;;;;;;;4.76;29.74;97102.02;108369;1281;24306;-86
2024/01/22 06:36:29;;;;;;;3.70;1.20;;;;;;;4.90;29.61;97091.54;108295;1284;22660;-86
2024/01/22 06:39:58;;;;;;;1.60;1.20;;;;;;;4.98;28.68;97082.81;108206;1284;137287;-85
2024/01/22 06:43:22;;;;;;;3.70;1.60;;;;;;;4.99;28.42;97068.13;108302;1284;22638;-85
2024/01/22 06:46:49;;;;;;;1.10;0.80;;;;;;;5.15;27.75;97061.77;108186;1284;137064;-84
2024/01/22 06:50:16;;;;;;;2.90;2.00;;;;;;;5.27;28.66;97081.60;108282;1283;22639;-84
2024/01/22 06:53:44;;;;;;;6.00;2.30;;;;;;;5.33;28.12;97078.30;108367;1283;22531;-85
2024/01/22 06:57:11;;;;;;;2.30;1.10;;;;;;;5.39;28.56;97075.91;108208;1284;137582;-84
2024/01/22 07:00:36;;;;;;;;;;;;;;;;;;;;;
2024/01/22 07:04:05;;;;;;;2.10;1.30;;;;;;;5.51;26.17;97057.52;108223;1284;137196;-86
2024/01/22 07:07:32;;;;;;;1.50;1.30;;;;;;;5.60;26.71;97066.48;108302;1284;22534;-86
2024/01/22 07:11:00;;;;;;;10.30;3.40;;;;;;;5.60;27.37;97064.07;108323;1278;137074;-86
2024/01/22 07:14:27;;;;;;;5.90;1.60;;;;;;;5.60;26.95;97064.64;108235;1284;24487;-86
2024/01/22 07:17:57;;;;;;;2.20;1.10;;;;;;;5.58;26.47;97076.29;108253;1280;24490;-86
2024/01/22 07:21:25;;;;;;;9.80;3.60;;;;;;;5.65;26.48;97072.02;108119;1284;137303;-88
2024/01/22 07:24:53;;;;;;;7.80;2.90;;;;;;;5.71;25.60;97050.25;108231;1284;26243;-86
2024/01/22 07:28:20;;;;;;;3.70;1.80;;;;;;;5.77;26.01;97048.53;108167;1277;137062;-85
2024/01/22 07:31:47;;;;;;;3.90;1.50;;;;;;;5.88;26.08;97048.05;108284;1284;22654;-86
2024/01/22 07:35:15;;;;;;;8.50;3.60;;;;;;;5.91;25.47;97030.61;108172;1284;137039;-86
2024/01/22 07:38:42;;;;;;;4.70;1.80;;;;;;;6.00;24.68;97020.96;108235;1284;23245;-86
2024/01/22 07:42:09;;;;;;;2.10;1.00;;;;;;;6.05;25.20;97022.36;108268;1284;22583;-86
2024/01/22 07:45:29;;;;;;;2.20;0.90;;;;;;;6.02;24.63;96994.67;108186;1284;137425;-86
2024/01/22 07:48:57;;;;;;;5.90;1.70;;;;;;;6.08;24.76;96988.38;108254;1284;22777;-86
2024/01/22 07:52:24;;;;;;;1.50;0.80;;;;;;;6.08;24.92;96994.21;108248;1277;137068;-86
2024/01/22 07:55:51;;;;;;;1.90;0.90;;;;;;;6.14;23.85;96993.30;108265;1284;22683;-86
2024/01/22 07:59:22;;;;;;;9.20;5.40;;;;;;;6.31;24.13;96988.71;108416;1276;137556;-86
2024/01/22 08:02:49;;;;;;;1.20;0.90;;;;;;;6.23;24.29;96965.64;108419;1282;22556;-86
2024/01/22 08:06:16;;;;;;;0.90;0.80;;;;;;;6.33;23.49;96973.40;108406;1282;22527;-86
2024/01/22 08:09:45;;;;;;;2.20;1.70;;;;;;;6.44;23.28;96978.82;108299;1282;137304;-86
2024/01/22 08:13:11;;;;;;;20.40;6.20;;;;;;;6.62;22.61;96965.27;108449;1282;24282;-86
2024/01/22 08:16:38;;;;;;;2.40;1.20;;;;;;;6.66;23.75;96963.13;108288;1276;137333;-85
2024/01/22 08:20:07;;;;;;;4.60;1.50;;;;;;;6.61;24.39;96951.87;108407;1283;22586;-86
2024/01/22 08:23:33;;;;;;;1.70;1.00;;;;;;;6.53;24.57;96943.36;108422;1282;22566;-86
2024/01/22 08:27:02;;;;;;;17.10;7.20;;;;;;;6.53;24.41;96955.05;108449;1282;22565;-86
2024/01/22 08:30:31;;;;;;;9.80;2.90;;;;;;;6.78;22.93;96935.89;108466;1282;22625;-86
2024/01/22 08:33:58;;;;;;;2.10;1.10;;;;;;;6.84;23.42;96927.35;108286;1275;137476;-86
2024/01/22 08:37:27;;;;;;;1.40;0.80;;;;;;;6.85;24.14;96939.38;108479;1282;22556;-86
2024/01/22 08:40:54;;;;;;;1.20;1.20;;;;;;;6.94;24.67;96929.87;108412;1283;137684;-86
2024/01/22 08:44:22;;;;;;;1.20;0.70;;;;;;;7.07;23.76;96932.56;108527;1276;22549;-86
2024/01/22 08:47:49;;;;;;;59.10;20.20;;;;;;;7.18;23.56;96916.38;108412;1282;22957;-86
2024/01/22 08:51:16;;;;;;;9.70;2.40;;;;;;;7.17;23.53;96931.79;108363;1282;22533;-87
2024/01/22 08:54:44;;;;;;;1.60;0.70;;;;;;;7.22;23.10;96898.39;108361;1283;22529;-87
2024/01/22 08:58:15;;;;;;;1.60;0.80;;;;;;;7.31;23.67;96897.54;108221;1275;137248;-87
2024/01/22 09:01:44;;;;;;;1.40;0.80;;;;;;;7.32;23.43;96893.95;108360;1284;22925;-87
2024/01/22 09:05:11;;;;;;;2.10;1.00;;;;;;;7.47;22.96;96895.11;108201;1277;137519;-86
2024/01/22 09:08:38;;;;;;;20.90;5.20;;;;;;;7.56;23.04;96877.54;108370;1284;22628;-86
2024/01/22 09:12:06;;;;;;;2.00;1.00;;;;;;;7.60;23.04;96876.91;108301;1284;22534;-87
2024/01/22 09:15:33;;;;;;;2.50;1.40;;;;;;;7.83;22.74;96876.02;108339;1276;22545;-87
2024/01/22 09:19:10;;;;;;;;;;;;;;;;;;;;;
2024/01/22 09:22:31;;;;;;;1.40;0.70;;;;;;;8.12;22.80;96871.25;108222;1284;137890;-87
2024/01/22 09:25:58;;;;;;;3.00;1.60;;;;;;;8.27;22.15;96861.64;108332;1277;23305;-87
2024/01/22 09:29:26;;;;;;;1.80;1.00;;;;;;;8.39;22.77;96834.44;108221;1284;137057;-87
2024/01/22 09:33:06;;;;;;;0.70;0.50;;;;;;;8.33;22.91;96841.84;108457;1284;22564;-87
2024/01/22 09:36:33;;;;;;;2.30;1.10;;;;;;;8.35;21.91;96832.29;108303;1283;22580;-87
2024/01/22 09:40:00;;;;;;;2.00;1.40;;;;;;;8.42;22.99;96820.81;108208;1277;137329;-87
2024/01/22 09:43:30;;;;;;;1.50;0.80;;;;;;;8.55;22.75;96825.10;108328;1278;22533;-87
2024/01/22 09:46:58;;;;;;;1.30;0.60;;;;;;;8.65;22.05;96832.34;108219;1284;137162;-87
2024/01/22 09:50:25;;;;;;;1.90;0.70;;;;;;;8.74;22.65;96824.83;108275;1284;22538;-87
2024/01/22 09:53:52;;;;;;;4.70;1.50;;;;;;;8.64;22.93;96837.27;108217;1276;137925;-87
2024/01/22 09:57:21;;;;;;;1.30;0.80;;;;;;;8.55;22.80;96841.52;108342;1283;22481;-87
2024/01/22 10:00:49;;;;;;;1.60;1.10;;;;;;;8.53;22.50;96831.58;108301;1284;22534;-87
2024/01/22 10:04:16;;;;;;;2.70;1.20;;;;;;;8.40;23.51;96833.56;108249;1276;138230;-87
2024/01/22 10:07:44;;;;;;;1.20;0.80;;;;;;;8.32;23.11;96846.79;108371;1283;22616;-87
2024/01/22 10:11:11;;;;;;;2.60;1.40;;;;;;;8.17;24.16;96829.87;108324;1276;137115;-88
2024/01/22 10:15:03;;;;;;;48.00;25.10;;;;;;;8.28;23.97;96824.37;108304;1284;22579;-87
2024/01/22 10:18:26;;;;;;;17.30;5.60;;;;;;;8.22;23.78;96827.94;108394;1283;22542;-88
2024/01/22 10:21:59;;;;;;;7.30;2.30;;;;;;;8.16;23.81;96836.02;108511;1277;26463;-87
2024/01/22 10:25:42;;;;;;;5.60;2.10;;;;;;;8.04;24.64;96822.89;108367;1284;22526;-87
2024/01/22 10:29:22;;;;;;;22.70;12.80;;;;;;;7.94;24.21;96818.36;107839;1288;137807;-87
2024/01/22 10:32:53;;;;;;;10.40;4.60;;;;;;;7.88;24.32;96823.73;107915;1290;25420;-88
2024/01/22 10:36:24;;;;;;;7.50;3.10;;;;;;;7.97;24.74;96815.14;107852;1284;22588;-87
2024/01/22 10:39:53;;;;;;;12.90;4.70;;;;;;;7.95;25.08;96815.68;108389;1283;22579;-87
2024/01/22 10:43:20;;;;;;;29.40;9.90;;;;;;;7.99;24.61;96832.15;108443;1277;23135;-88
2024/01/22 10:46:47;;;;;;;5.00;2.20;;;;;;;8.00;24.48;96802.94;108358;1276;22741;-86
2024/01/22 10:50:15;;;;;;;13.20;4.00;;;;;;;8.15;24.52;96811.75;108320;1278;22540;-87
2024/01/22 10:53:42;;;;;;;7.80;3.30;;;;;;;8.25;23.95;96797.89;108247;1283;137963;-86
2024/01/22 10:57:13;;;;;;;14.80;5.80;;;;;;;8.23;25.44;96824.61;108324;1282;23384;-87
2024/01/22 11:00:43;;;;;;;5.60;1.70;;;;;;;8.15;23.69;96805.81;108491;1282;24240;-86
2024/01/22 11:04:10;;;;;;;3.20;1.40;;;;;;;8.22;24.18;96803.45;108380;1283;23571;-87
2024/01/22 11:07:35;;;;;;;1.80;1.20;;;;;;;8.34;23.82;96785.80;108441;1282;23441;-86
2024/01/22 11:11:02;;;;;;;5.40;2.10;;;;;;;8.53;22.40;96783.27;108425;1279;137458;-87
2024/01/22 11:14:32;;;;;;;2.40;1.00;;;;;;;8.58;23.35;96781.98;108425;1283;22712;-88
2024/01/22 11:17:59;;;;;;;2.50;1.10;;;;;;;8.73;22.46;96781.94;108238;1283;137332;-87
2024/01/22 11:21:27;;;;;;;2.40;1.20;;;;;;;8.74;22.82;96754.54;108448;1275;22556;-88
2024/01/22 11:25:09;;;;;;;5.90;1.70;;;;;;;8.87;23.06;96742.27;108408;1277;23073;-87
2024/01/22 11:28:46;;;;;;;8.70;3.30;;;;;;;9.08;22.43;96760.99;108265;1282;137779;-87
2024/01/22 11:32:13;;;;;;;2.00;1.40;;;;;;;9.04;21.83;96746.19;108380;1283;22594;-88
2024/01/22 11:35:40;;;;;;;5.70;2.50;;;;;;;8.96;21.86;96735.29;108148;1283;137610;-87
2024/01/22 11:39:06;;;;;;;4.80;2.40;;;;;;;9.06;22.37;96755.25;108393;1283;22537;-87
2024/01/22 11:42:57;;;;;;;1.80;1.00;;;;;;;9.10;23.19;96744.73;108318;1278;136760;-88
2024/01/22 11:46:13;;;;;;;3.20;1.80;;;;;;;9.01;22.37;96756.66;108290;1283;22498;-87
2024/01/22 11:49:40;;;;;;;1.10;0.90;;;;;;;8.80;21.97;96768.61;108300;1278;22556;-87
2024/01/22 11:53:14;;;;;;;1.40;0.50;;;;;;;8.81;22.52;96772.47;108343;1283;22606;-85
2024/01/22 11:56:41;;;;;;;0.70;0.60;;;;;;;8.92;22.26;96761.89;108423;1283;22533;-87
2024/01/22 12:00:09;;;;;;;1.80;0.70;;;;;;;9.00;22.05;96753.45;108333;1278;137221;-87
2024/01/22 12:03:37;;;;;;;1.50;0.70;;;;;;;8.93;22.41;96746.48;108431;1276;22598;-87
2024/01/22 12:07:03;;;;;;;1.50;0.70;;;;;;;8.95;22.47;96754.76;108390;1275;22527;-88
2024/01/22 12:10:37;;;;;;;2.30;1.00;;;;;;;8.85;22.47;96754.27;108416;1283;22530;-88
2024/01/22 12:14:17;;;;;;;1.80;1.00;;;;;;;8.70;23.13;96733.55;108494;1282;22529;-87
2024/01/22 12:17:46;;;;;;;2.40;1.30;;;;;;;8.58;23.47;96721.10;108270;1283;137260;-87
2024/01/22 12:21:20;;;;;;;4.20;1.60;;;;;;;8.57;23.22;96711.59;108472;1278;23193;-88
2024/01/22 12:24:38;;;;;;;;;;;;;;;8.63;23.39;96728.44;108262;1282;138053;-88
2024/01/22 12:27:59;;;;;;;2.10;1.10;;;;;;;8.61;23.06;96735.20;108363;1283;22593;-87
2024/01/22 12:31:27;;;;;;;1.10;0.60;;;;;;;8.58;22.94;96730.46;108242;1278;22573;-86
2024/01/22 12:34:52;;;;;;;;;;;;;;;;;;;;;
2024/01/22 12:38:22;;;;;;;2.00;1.10;;;;;;;8.54;22.93;96724.80;108385;1280;22559;-87
2024/01/22 12:41:47;;;;;;;3.20;1.10;;;;;;;8.54;23.55;96735.71;108307;1276;137079;-86
2024/01/22 12:45:15;;;;;;;5.90;2.10;;;;;;;8.28;23.57;96727.33;108352;1283;22596;-87
2024/01/22 12:49:07;;;;;;;2.10;1.00;;;;;;;8.07;23.44;96737.16;108302;1278;137117;-88
2024/01/22 12:52:12;;;;;;;2.20;1.50;;;;;;;8.00;24.08;96719.71;108223;1282;22532;-87
2024/01/22 12:55:38;;;;;;;1.90;1.00;;;;;;;7.96;24.00;96712.92;108548;1275;22829;-87
2024/01/22 12:59:07;;;;;;;1.50;0.90;;;;;;;7.86;24.50;96704.08;108327;1275;137254;-87
2024/01/22 13:02:37;;;;;;;3.30;1.40;;;;;;;7.69;24.67;96703.43;108335;1275;22551;-86
2024/01/22 13:06:02;;;;;;;3.10;1.20;;;;;;;7.55;25.18;96691.77;108326;1282;137692;-87
2024/01/22 13:09:30;;;;;;;3.80;1.60;;;;;;;7.45;24.65;96681.69;108369;1283;22560;-87
2024/01/22 13:12:57;;;;;;;1.80;1.10;;;;;;;7.39;24.79;96674.40;108326;1277;137893;-87
2024/01/22 13:16:24;;;;;;;3.30;1.70;;;;;;;7.33;24.81;96687.59;108371;1282;23862;-87
2024/01/22 13:19:51;;;;;;;2.30;1.40;;;;;;;7.25;25.48;96672.20;108291;1282;24757;-86
2024/01/22 13:23:19;;;;;;;2.80;1.50;;;;;;;7.25;25.72;96666.92;108179;1282;137986;-87
2024/01/22 13:26:46;;;;;;;2.20;1.70;;;;;;;7.34;25.53;96631.63;108319;1283;22536;-87
2024/01/22 13:30:14;;;;;;;3.50;1.40;;;;;;;7.50;25.03;96632.14;108283;1282;137056;-87
2024/01/22 13:33:41;;;;;;;2.70;1.30;;;;;;;7.66;24.58;96649.30;108424;1282;22547;-87
2024/01/22 13:37:08;;;;;;;2.30;1.20;;;;;;;7.71;25.89;96634.05;108238;1283;137482;-87
2024/01/22 13:40:39;;;;;;;1.80;1.30;;;;;;;7.69;25.04;96629.27;104225;1277;5588904;-86
2024/01/22 13:44:07;;;;;;;2.20;1.20;;;;;;;7.66;25.76;96609.09;108409;1275;22609;-87
2024/01/22 13:48:01;;;;;;;2.20;1.40;;;;;;;7.51;25.78;96594.59;108273;1283;137357;-87
2024/01/22 13:51:10;;;;;;;1.60;1.10;;;;;;;7.39;25.58;96608.11;108332;1282;22747;-86
2024/01/22 13:54:38;;;;;;;2.60;1.60;;;;;;;7.33;25.96;96607.27;108275;1282;137107;-87
2024/01/22 13:58:08;;;;;;;4.30;1.60;;;;;;;7.24;25.64;96612.29;108421;1282;24330;-87
2024/01/22 14:01:36;;;;;;;2.40;1.20;;;;;;;7.16;25.95;96641.27;108412;1281;23006;-86
2024/01/22 14:05:05;;;;;;;2.70;2.00;;;;;;;7.03;25.69;96642.55;108422;1278;22521;-86
2024/01/22 14:08:30;;;;;;;2.90;1.90;;;;;;;6.90;26.47;96633.02;108350;1278;22851;-87
2024/01/22 14:11:57;;;;;;;2.60;1.70;;;;;;;6.82;25.75;96636.92;108277;1282;137876;-87
2024/01/22 14:15:25;;;;;;;2.60;1.50;;;;;;;6.75;26.04;96621.05;108377;1282;22541;-87
2024/01/22 14:18:52;;;;;;;3.10;1.90;;;;;;;6.68;27.14;96611.66;108312;1275;137110;-86
2024/01/22 14:22:22;;;;;;;6.30;4.10;;;;;;;6.59;27.15;96610.13;108426;1282;22636;-86
2024/01/22 14:25:48;;;;;;;3.40;2.00;;;;;;;6.49;27.03;96629.86;108474;1282;23176;-87
2024/01/22 14:29:16;;;;;;;5.40;2.40;;;;;;;6.38;27.07;96642.11;108403;1282;22526;-86
2024/01/22 14:32:44;;;;;;;5.70;3.90;;;;;;;6.31;26.66;96645.30;108450;1282;22531;-87
2024/01/22 14:36:20;;;;;;;;;;;;;;;;;;;;;
2024/01/22 14:39:43;;;;;;;3.70;2.30;;;;;;;6.17;28.17;96629.32;108379;1283;22566;-86
2024/01/22 14:43:10;;;;;;;10.10;4.40;;;;;;;6.11;27.86;96619.97;108248;1279;137673;-87
2024/01/22 14:46:37;;;;;;;5.30;3.30;;;;;;;6.06;27.81;96601.69;108441;1282;22555;-86
2024/01/22 14:50:06;;;;;;;7.40;3.10;;;;;;;6.01;27.98;96605.05;108383;1282;22569;-86
2024/01/22 14:53:33;;;;;;;6.30;3.80;;;;;;;5.95;28.50;96594.27;108506;1283;24386;-86
2024/01/22 14:57:01;;;;;;;5.30;3.70;;;;;;;5.91;28.47;96605.84;108453;1275;22616;-86
2024/01/22 15:00:29;;;;;;;7.60;3.50;;;;;;;5.89;29.05;96602.28;108372;1275;137267;-86
2024/01/22 15:03:58;;;;;;;7.00;2.90;;;;;;;5.92;28.34;96609.20;108432;1280;22586;-86
2024/01/22 15:07:25;;;;;;;6.10;2.90;;;;;;;5.91;28.78;96607.58;108296;1282;137384;-86
2024/01/22 15:10:54;;;;;;;9.60;4.90;;;;;;;5.87;28.85;96587.50;108380;1282;22906;-87
2024/01/22 15:14:32;;;;;;;;;;;;;;;;;;;;;
2024/01/22 15:17:53;;;;;;;3.50;2.30;;;;;;;5.89;28.15;96587.49;108255;1283;136724;-87
2024/01/22 15:21:21;;;;;;;3.00;2.10;;;;;;;5.97;28.29;96577.41;108397;1278;22557;-86